La rose des vents
Donnes mto: Semaine 29/01/07 - 04/02/07 (S 5)
Date Horaire Temp. E. Hum. E. P.atmo. Pluie Vent 1mn Direction Ensoleilleme Ev.Tr. Solaire P. de rose Temp au vent Rafales
29/01/2007 00:00 7,4 C 78 % 1023,2 hPa 0,0 l/m 4,2 km/h (1 Bft) O-NO 0,00 h 0,025 mm 0 W/m 3,9 C 6,9 C 6,5 km/h (2 Bft)
29/01/2007 01:00 7,3 C 77 % 1022,3 hPa 0,0 l/m 5,3 km/h (1 Bft) N-NO 0,00 h 0,025 mm 0 W/m 3,6 C 6,6 C 8,6 km/h (2 Bft)
29/01/2007 02:00 7,0 C 76 % 1021,5 hPa 0,0 l/m 7,7 km/h (2 Bft) O-NO 0,00 h 0,025 mm 0 W/m 3,0 C 5,6 C 10,9 km/h (2 Bft)
29/01/2007 03:00 6,1 C 77 % 1020,8 hPa 0,0 l/m 5,9 km/h (2 Bft) NO 0,00 h 0,025 mm 0 W/m 2,4 C 5,1 C 9,1 km/h (2 Bft)
29/01/2007 04:00 5,3 C 79 % 1020,1 hPa 0,0 l/m 3,8 km/h (1 Bft) NO 0,00 h 0,025 mm 0 W/m 1,9 C 4,8 C 6,1 km/h (2 Bft)
29/01/2007 05:00 4,6 C 80 % 1019,7 hPa 0,0 l/m 3,5 km/h (1 Bft) NO 0,00 h 0,025 mm 0 W/m 1,5 C 4,1 C 5,7 km/h (1 Bft)
29/01/2007 06:00 4,2 C 79 % 1019,3 hPa 0,0 l/m 4,8 km/h (1 Bft) O-NO 0,00 h 0,025 mm 0 W/m 0,9 C 3,3 C 7,0 km/h (2 Bft)
29/01/2007 07:00 3,9 C 77 % 1018,8 hPa 0,0 l/m 5,4 km/h (1 Bft) NO 0,00 h 0,025 mm 7 W/m 0,3 C 2,7 C 8,3 km/h (2 Bft)
29/01/2007 08:00 4,8 C 74 % 1018,8 hPa 0,0 l/m 4,8 km/h (1 Bft) NO 0,95 h 0,025 mm 65 W/m 0,6 C 4,0 C 7,1 km/h (2 Bft)
29/01/2007 09:00 6,6 C 66 % 1019,1 hPa 0,0 l/m 1,6 km/h (1 Bft) NO 1,00 h 0,051 mm 202 W/m 0,8 C 6,6 C 3,3 km/h (1 Bft)
29/01/2007 10:00 9,1 C 64 % 1019,1 hPa 0,0 l/m 1,9 km/h (1 Bft) NE 1,00 h 0,102 mm 331 W/m 2,6 C 9,1 C 3,7 km/h (1 Bft)
29/01/2007 11:00 10,7 C 61 % 1019,1 hPa 0,0 l/m 3,3 km/h (1 Bft) NE 1,00 h 0,152 mm 420 W/m 3,5 C 10,7 C 5,6 km/h (1 Bft)
29/01/2007 12:00 11,4 C 55 % 1018,3 hPa 0,0 l/m 3,1 km/h (1 Bft) NE 1,00 h 0,229 mm 466 W/m 2,8 C 11,4 C 5,3 km/h (1 Bft)
29/01/2007 13:00 12,2 C 51 % 1017,7 hPa 0,0 l/m 5,3 km/h (1 Bft) E-NE 1,00 h 0,254 mm 454 W/m 2,2 C 12,2 C 8,5 km/h (2 Bft)
29/01/2007 14:00 12,1 C 58 % 1017,4 hPa 0,0 l/m 5,3 km/h (1 Bft) E 1,00 h 0,254 mm 380 W/m 4,0 C 12,1 C 8,6 km/h (2 Bft)
29/01/2007 15:00 11,7 C 63 % 1017,4 hPa 0,0 l/m 2,8 km/h (1 Bft) E 1,00 h 0,203 mm 260 W/m 4,9 C 11,7 C 5,7 km/h (1 Bft)
29/01/2007 16:00 10,9 C 69 % 1017,4 hPa 0,0 l/m 4,7 km/h (1 Bft) E-NE 1,00 h 0,152 mm 121 W/m 5,3 C 10,9 C 6,8 km/h (2 Bft)
29/01/2007 17:00 8,8 C 76 % 1017,4 hPa 0,0 l/m 3,4 km/h (1 Bft) NE 0,07 h 0,076 mm 21 W/m 4,8 C 8,7 C 5,4 km/h (1 Bft)
29/01/2007 18:00 6,9 C 84 % 1017,9 hPa 0,0 l/m 1,1 km/h (0 Bft) N-NE 0,00 h 0,025 mm 0 W/m 4,4 C 6,8 C 2,8 km/h (1 Bft)
29/01/2007 19:00 6,9 C 84 % 1018,1 hPa 0,0 l/m 3,9 km/h (1 Bft) N-NO 0,00 h 0,025 mm 0 W/m 4,3 C 6,5 C 6,8 km/h (2 Bft)
29/01/2007 20:00 6,5 C 83 % 1018,2 hPa 0,0 l/m 4,0 km/h (1 Bft) N 0,00 h 0,025 mm 0 W/m 3,9 C 6,1 C 6,8 km/h (2 Bft)
29/01/2007 21:00 7,2 C 82 % 1018,4 hPa 0,0 l/m 3,7 km/h (1 Bft) N-NE 0,00 h 0,025 mm 0 W/m 4,3 C 6,9 C 6,0 km/h (2 Bft)
29/01/2007 22:00 7,0 C 83 % 1018,4 hPa 0,0 l/m 2,5 km/h (1 Bft) N-NE 0,00 h 0,025 mm 0 W/m 4,3 C 6,9 C 4,5 km/h (1 Bft)
29/01/2007 23:00 6,4 C 83 % 1018,3 hPa 0,0 l/m 2,1 km/h (1 Bft) N 0,00 h 0,025 mm 0 W/m 3,7 C 6,3 C 4,3 km/h (1 Bft)
30/01/2007 00:00 5,1 C 85 % 1018,5 hPa 0,0 l/m 3,3 km/h (1 Bft) N 0,00 h 0,025 mm 0 W/m 2,8 C 4,9 C 5,4 km/h (1 Bft)
30/01/2007 01:00 4,7 C 86 % 1018,6 hPa 0,0 l/m 3,3 km/h (1 Bft) N 0,00 h 0,025 mm 0 W/m 2,6 C 4,5 C 5,5 km/h (1 Bft)
30/01/2007 02:00 5,1 C 87 % 1018,8 hPa 0,0 l/m 2,6 km/h (1 Bft) N-NE 0,00 h 0,025 mm 0 W/m 3,0 C 4,9 C 4,5 km/h (1 Bft)
30/01/2007 03:00 5,7 C 81 % 1019,0 hPa 0,0 l/m 4,8 km/h (1 Bft) N-NO 0,00 h 0,025 mm 0 W/m 2,8 C 5,0 C 7,0 km/h (2 Bft)
30/01/2007 04:00 5,9 C 80 % 1019,0 hPa 0,0 l/m 7,0 km/h (2 Bft) NO 0,00 h 0,025 mm 0 W/m 2,7 C 4,5 C 10,1 km/h (2 Bft)
30/01/2007 05:00 6,1 C 80 % 1019,0 hPa 0,0 l/m 9,2 km/h (2 Bft) O-NO 0,00 h 0,025 mm 0 W/m 2,9 C 4,1 C 14,0 km/h (3 Bft)
30/01/2007 06:00 5,8 C 79 % 1019,3 hPa 0,0 l/m 9,2 km/h (2 Bft) O-NO 0,00 h 0,025 mm 0 W/m 2,5 C 3,8 C 13,6 km/h (3 Bft)
30/01/2007 07:00 5,6 C 80 % 1019,7 hPa 0,0 l/m 7,5 km/h (2 Bft) NO 0,00 h 0,025 mm 6 W/m 2,4 C 4,0 C 11,3 km/h (2 Bft)
30/01/2007 08:00 6,1 C 77 % 1020,4 hPa 0,0 l/m 5,7 km/h (1 Bft) NO 0,55 h 0,025 mm 73 W/m 2,3 C 5,1 C 9,0 km/h (2 Bft)
30/01/2007 09:00 8,6 C 72 % 1020,9 hPa 0,0 l/m 1,9 km/h (1 Bft) N-NO 1,00 h 0,051 mm 208 W/m 3,8 C 8,5 C 4,2 km/h (1 Bft)
30/01/2007 10:00 11,0 C 67 % 1021,2 hPa 0,0 l/m 2,2 km/h (1 Bft) N 1,00 h 0,102 mm 338 W/m 5,0 C 11,0 C 5,0 km/h (1 Bft)
30/01/2007 11:00 12,6 C 62 % 1021,6 hPa 0,0 l/m 4,7 km/h (1 Bft) E-NE 1,00 h 0,178 mm 436 W/m 5,5 C 12,6 C 7,6 km/h (2 Bft)
30/01/2007 12:00 13,0 C 61 % 1021,2 hPa 0,0 l/m 4,1 km/h (1 Bft) E-NE 1,00 h 0,229 mm 467 W/m 5,5 C 13,0 C 6,8 km/h (2 Bft)
30/01/2007 13:00 13,2 C 60 % 1020,6 hPa 0,0 l/m 4,7 km/h (1 Bft) SE 1,00 h 0,254 mm 452 W/m 5,7 C 13,2 C 8,0 km/h (2 Bft)
30/01/2007 14:00 13,3 C 60 % 1020,0 hPa 0,0 l/m 4,2 km/h (1 Bft) E-SE 1,00 h 0,254 mm 382 W/m 5,6 C 13,3 C 7,0 km/h (2 Bft)
30/01/2007 15:00 13,0 C 59 % 1019,7 hPa 0,0 l/m 2,8 km/h (1 Bft) SE 1,00 h 0,203 mm 267 W/m 5,2 C 13,0 C 5,5 km/h (1 Bft)
30/01/2007 16:00 12,3 C 65 % 1019,7 hPa 0,0 l/m 1,0 km/h (0 Bft) SE 1,00 h 0,152 mm 127 W/m 5,8 C 12,3 C 2,7 km/h (1 Bft)
30/01/2007 17:00 10,2 C 75 % 1020,0 hPa 0,0 l/m 0,3 km/h (0 Bft) SE 0,10 h 0,076 mm 22 W/m 5,9 C 10,2 C 1,4 km/h (1 Bft)
30/01/2007 18:00 8,9 C 79 % 1020,4 hPa 0,0 l/m 1,3 km/h (1 Bft) SO 0,00 h 0,025 mm 0 W/m 5,5 C 8,8 C 1,9 km/h (1 Bft)
30/01/2007 19:00 8,0 C 80 % 1021,0 hPa 0,0 l/m 4,9 km/h (1 Bft) O-NO 0,00 h 0,000 mm 0 W/m 4,7 C 7,5 C 6,6 km/h (2 Bft)
30/01/2007 20:00 7,0 C 82 % 1021,3 hPa 0,0 l/m 5,0 km/h (1 Bft) NO 0,00 h 0,025 mm 0 W/m 4,1 C 6,3 C 7,9 km/h (2 Bft)
30/01/2007 21:00 6,9 C 82 % 1021,3 hPa 0,0 l/m 5,0 km/h (1 Bft) NO 0,00 h 0,025 mm 0 W/m 4,0 C 6,2 C 7,0 km/h (2 Bft)
30/01/2007 22:00 6,6 C 82 % 1021,5 hPa 0,0 l/m 4,7 km/h (1 Bft) O-NO 0,00 h 0,025 mm 0 W/m 3,8 C 6,0 C 7,6 km/h (2 Bft)
30/01/2007 23:00 6,7 C 82 % 1021,7 hPa 0,0 l/m 5,7 km/h (1 Bft) NO 0,00 h 0,025 mm 0 W/m 3,9 C 5,8 C 8,9 km/h (2 Bft)
31/01/2007 00:00 6,9 C 82 % 1021,8 hPa 0,0 l/m 9,0 km/h (2 Bft) O-NO 0,00 h 0,025 mm 0 W/m 4,0 C 5,2 C 13,1 km/h (3 Bft)
31/01/2007 01:00 7,3 C 79 % 1021,6 hPa 0,0 l/m 8,6 km/h (2 Bft) O-NO 0,00 h 0,025 mm 0 W/m 4,0 C 5,8 C 12,5 km/h (3 Bft)
31/01/2007 02:00 7,2 C 78 % 1021,5 hPa 0,0 l/m 4,8 km/h (1 Bft) NO 0,00 h 0,025 mm 0 W/m 3,6 C 6,6 C 6,6 km/h (2 Bft)
31/01/2007 03:00 6,8 C 79 % 1021,3 hPa 0,0 l/m 4,3 km/h (1 Bft) NO 0,00 h 0,025 mm 0 W/m 3,4 C 6,4 C 6,2 km/h (2 Bft)
31/01/2007 04:00 7,3 C 79 % 1021,1 hPa 0,0 l/m 4,3 km/h (1 Bft) NO 0,00 h 0,025 mm 0 W/m 3,8 C 6,9 C 6,4 km/h (2 Bft)
31/01/2007 05:00 8,0 C 77 % 1021,2 hPa 0,0 l/m 3,7 km/h (1 Bft) N-NO 0,00 h 0,025 mm 0 W/m 4,2 C 7,7 C 5,9 km/h (2 Bft)
31/01/2007 06:00 7,9 C 76 % 1021,4 hPa 0,0 l/m 4,9 km/h (1 Bft) N-NO 0,00 h 0,025 mm 0 W/m 4,0 C 7,4 C 7,3 km/h (2 Bft)
31/01/2007 07:00 8,1 C 74 % 1021,5 hPa 0,0 l/m 6,7 km/h (2 Bft) N-NO 0,00 h 0,025 mm 7 W/m 3,7 C 7,1 C 9,8 km/h (2 Bft)
31/01/2007 08:00 8,0 C 73 % 1021,6 hPa 0,0 l/m 3,5 km/h (1 Bft) N-NO 0,03 h 0,025 mm 26 W/m 3,5 C 7,7 C 5,9 km/h (2 Bft)
31/01/2007 09:00 8,7 C 74 % 1021,9 hPa 0,0 l/m 2,0 km/h (1 Bft) NO 0,18 h 0,025 mm 111 W/m 4,3 C 8,6 C 3,5 km/h (1 Bft)
31/01/2007 10:00 9,4 C 75 % 1022,2 hPa 0,0 l/m 0,7 km/h (0 Bft) NO 0,07 h 0,051 mm 124 W/m 5,3 C 9,4 C 1,7 km/h (1 Bft)
31/01/2007 11:00 10,8 C 71 % 1022,3 hPa 0,0 l/m 1,5 km/h (1 Bft) N 0,40 h 0,051 mm 268 W/m 5,6 C 10,8 C 3,3 km/h (1 Bft)
31/01/2007 12:00 12,8 C 65 % 1021,6 hPa 0,0 l/m 4,2 km/h (1 Bft) NE 0,63 h 0,127 mm 343 W/m 6,5 C 12,8 C 6,5 km/h (2 Bft)
31/01/2007 13:00 12,7 C 68 % 1021,2 hPa 0,0 l/m 4,0 km/h (1 Bft) E 0,20 h 0,178 mm 243 W/m 6,9 C 12,7 C 6,6 km/h (2 Bft)
31/01/2007 14:00 12,8 C 70 % 1020,6 hPa 0,0 l/m 3,0 km/h (1 Bft) E-SE 0,42 h 0,152 mm 295 W/m 7,4 C 12,8 C 6,0 km/h (2 Bft)
31/01/2007 15:00 12,2 C 74 % 1020,6 hPa 0,0 l/m 2,3 km/h (1 Bft) E 0,00 h 0,152 mm 138 W/m 7,6 C 12,2 C 5,3 km/h (1 Bft)
31/01/2007 16:00 11,6 C 78 % 1020,6 hPa 0,0 l/m 1,0 km/h (0 Bft) E 0,00 h 0,076 mm 35 W/m 7,8 C 11,6 C 2,4 km/h (1 Bft)
31/01/2007 17:00 10,9 C 81 % 1020,6 hPa 0,0 l/m 0,1 km/h (0 Bft) E-SE 0,00 h 0,025 mm 9 W/m 7,7 C 10,9 C 0,7 km/h (0 Bft)
31/01/2007 18:00 10,5 C 82 % 1020,9 hPa 0,0 l/m 0,1 km/h (0 Bft) E-SE 0,00 h 0,000 mm 0 W/m 7,5 C 10,5 C 0,5 km/h (0 Bft)
31/01/2007 19:00 10,4 C 81 % 1021,0 hPa 0,0 l/m 1,9 km/h (1 Bft) NO 0,00 h 0,025 mm 0 W/m 7,3 C 10,4 C 3,8 km/h (1 Bft)
31/01/2007 20:00 10,4 C 81 % 1020,8 hPa 0,0 l/m 0,6 km/h (0 Bft) NO 0,00 h 0,025 mm 0 W/m 7,3 C 10,4 C 1,7 km/h (1 Bft)
31/01/2007 21:00 10,2 C 82 % 1020,6 hPa 0,0 l/m 0,0 km/h (0 Bft) N 0,00 h 0,025 mm 0 W/m 7,2 C 10,2 C 0,6 km/h (0 Bft)
31/01/2007 22:00 9,8 C 84 % 1020,7 hPa 0,0 l/m 0,0 km/h (0 Bft) N 0,00 h 0,025 mm 0 W/m 7,2 C 9,8 C 0,5 km/h (0 Bft)
31/01/2007 23:00 9,6 C 85 % 1020,5 hPa 0,0 l/m 0,8 km/h (0 Bft) NO 0,00 h 0,025 mm 0 W/m 7,2 C 9,6 C 1,8 km/h (1 Bft)
01/02/2007 00:00 9,4 C 83 % 1020,4 hPa 0,0 l/m 2,0 km/h (1 Bft) NO 0,00 h 0,000 mm 0 W/m 6,6 C 9,4 C 4,0 km/h (1 Bft)
01/02/2007 01:00 9,1 C 81 % 1020,0 hPa 0,0 l/m 2,7 km/h (1 Bft) O-NO 0,00 h 0,025 mm 0 W/m 6,0 C 9,0 C 5,2 km/h (1 Bft)
01/02/2007 02:00 8,9 C 80 % 1020,0 hPa 0,0 l/m 3,1 km/h (1 Bft) O-NO 0,00 h 0,025 mm 0 W/m 5,6 C 8,8 C 5,2 km/h (1 Bft)
01/02/2007 03:00 7,8 C 81 % 1019,6 hPa 0,0 l/m 6,3 km/h (2 Bft) O-NO 0,00 h 0,025 mm 0 W/m 4,8 C 6,9 C 8,7 km/h (2 Bft)
01/02/2007 04:00 7,5 C 78 % 1019,2 hPa 0,0 l/m 8,5 km/h (2 Bft) N-NO 0,00 h 0,025 mm 0 W/m 3,9 C 6,0 C 12,0 km/h (2 Bft)
01/02/2007 05:00 7,2 C 78 % 1018,9 hPa 0,0 l/m 9,3 km/h (2 Bft) NO 0,00 h 0,025 mm 0 W/m 3,5 C 5,4 C 13,4 km/h (3 Bft)
01/02/2007 06:00 6,8 C 77 % 1018,6 hPa 0,0 l/m 5,2 km/h (1 Bft) NO 0,00 h 0,025 mm 0 W/m 3,0 C 6,1 C 7,7 km/h (2 Bft)
01/02/2007 07:00 6,1 C 80 % 1019,0 hPa 0,0 l/m 3,9 km/h (1 Bft) NO 0,02 h 0,025 mm 8 W/m 3,0 C 5,7 C 5,5 km/h (1 Bft)
01/02/2007 08:00 7,2 C 77 % 1019,0 hPa 0,0 l/m 2,6 km/h (1 Bft) NO 1,00 h 0,025 mm 71 W/m 3,4 C 7,1 C 4,2 km/h (1 Bft)
01/02/2007 09:00 10,1 C 68 % 1019,0 hPa 0,0 l/m 1,0 km/h (0 Bft) O 1,00 h 0,051 mm 211 W/m 4,5 C 10,1 C 2,0 km/h (1 Bft)
01/02/2007 10:00 11,4 C 64 % 1019,5 hPa 0,0 l/m 0,5 km/h (0 Bft) NE 1,00 h 0,102 mm 336 W/m 4,9 C 11,4 C 1,7 km/h (1 Bft)
01/02/2007 11:00 13,3 C 61 % 1019,5 hPa 0,0 l/m 4,5 km/h (1 Bft) SE 1,00 h 0,178 mm 425 W/m 6,1 C 13,3 C 7,2 km/h (2 Bft)
01/02/2007 12:00 13,8 C 60 % 1019,2 hPa 0,0 l/m 5,9 km/h (2 Bft) S-SE 1,00 h 0,229 mm 463 W/m 6,0 C 13,8 C 9,2 km/h (2 Bft)
01/02/2007 13:00 14,6 C 61 % 1018,8 hPa 0,0 l/m 4,3 km/h (1 Bft) E 1,00 h 0,279 mm 439 W/m 7,1 C 14,6 C 7,2 km/h (2 Bft)
01/02/2007 14:00 14,7 C 63 % 1018,4 hPa 0,0 l/m 4,1 km/h (1 Bft) S-SE 1,00 h 0,254 mm 349 W/m 7,7 C 14,7 C 6,5 km/h (2 Bft)
01/02/2007 15:00 14,8 C 64 % 1018,3 hPa 0,0 l/m 3,3 km/h (1 Bft) E-NE 1,00 h 0,203 mm 256 W/m 8,0 C 14,8 C 5,2 km/h (1 Bft)
01/02/2007 16:00 13,8 C 67 % 1018,3 hPa 0,0 l/m 5,9 km/h (2 Bft) S-SE 1,00 h 0,152 mm 130 W/m 7,8 C 13,8 C 8,3 km/h (2 Bft)
01/02/2007 17:00 11,7 C 76 % 1018,6 hPa 0,0 l/m 5,6 km/h (1 Bft) S-SO 0,30 h 0,102 mm 25 W/m 7,6 C 11,7 C 7,6 km/h (2 Bft)
01/02/2007 18:00 10,0 C 84 % 1019,2 hPa 0,0 l/m 1,3 km/h (1 Bft) O-SO 0,00 h 0,025 mm 0 W/m 7,3 C 10,0 C 2,7 km/h (1 Bft)
01/02/2007 19:00 9,0 C 87 % 1019,8 hPa 0,0 l/m 0,3 km/h (0 Bft) O 0,00 h 0,000 mm 0 W/m 7,0 C 9,0 C 1,2 km/h (1 Bft)
01/02/2007 20:00 8,6 C 88 % 1020,3 hPa 0,0 l/m 1,7 km/h (1 Bft) NO 0,00 h 0,025 mm 0 W/m 6,7 C 8,5 C 3,0 km/h (1 Bft)
01/02/2007 21:00 8,7 C 87 % 1020,8 hPa 0,0 l/m 1,4 km/h (1 Bft) NO 0,00 h 0,025 mm 0 W/m 6,7 C 8,7 C 2,4 km/h (1 Bft)
01/02/2007 22:00 8,5 C 84 % 1021,2 hPa 0,0 l/m 2,4 km/h (1 Bft) NO 0,00 h 0,025 mm 0 W/m 6,0 C 8,5 C 3,5 km/h (1 Bft)
01/02/2007 23:00 8,3 C 80 % 1021,7 hPa 0,0 l/m 4,0 km/h (1 Bft) NO 0,00 h 0,025 mm 0 W/m 5,0 C 8,0 C 5,4 km/h (1 Bft)
02/02/2007 00:00 7,8 C 79 % 1022,5 hPa 0,0 l/m 3,4 km/h (1 Bft) N-NO 0,00 h 0,025 mm 0 W/m 4,3 C 7,6 C 5,8 km/h (2 Bft)
02/02/2007 01:00 7,2 C 83 % 1022,9 hPa 0,0 l/m 3,2 km/h (1 Bft) N 0,00 h 0,025 mm 0 W/m 4,5 C 7,1 C 5,3 km/h (1 Bft)
02/02/2007 02:00 7,4 C 87 % 1023,4 hPa 0,0 l/m 2,8 km/h (1 Bft) N 0,00 h 0,025 mm 0 W/m 5,4 C 7,3 C 5,1 km/h (1 Bft)
02/02/2007 03:00 7,5 C 86 % 1023,8 hPa 0,0 l/m 3,7 km/h (1 Bft) N-NO 0,00 h 0,025 mm 0 W/m 5,3 C 7,2 C 5,8 km/h (2 Bft)
02/02/2007 04:00 7,6 C 81 % 1024,1 hPa 0,0 l/m 3,6 km/h (1 Bft) NO 0,00 h 0,025 mm 0 W/m 4,6 C 7,4 C 5,5 km/h (1 Bft)
02/02/2007 05:00 7,8 C 77 % 1024,7 hPa 0,0 l/m 3,8 km/h (1 Bft) NO 0,00 h 0,025 mm 0 W/m 3,9 C 7,5 C 5,8 km/h (1 Bft)
02/02/2007 06:00 7,7 C 76 % 1025,1 hPa 0,0 l/m 3,4 km/h (1 Bft) N-NO 0,00 h 0,025 mm 0 W/m 3,7 C 7,5 C 5,1 km/h (1 Bft)
02/02/2007 07:00 7,8 C 76 % 1025,6 hPa 0,0 l/m 3,9 km/h (1 Bft) NO 0,03 h 0,025 mm 8 W/m 3,7 C 7,5 C 5,5 km/h (1 Bft)
02/02/2007 08:00 8,5 C 74 % 1026,1 hPa 0,0 l/m 3,5 km/h (1 Bft) NO 0,67 h 0,025 mm 65 W/m 4,2 C 8,3 C 5,2 km/h (1 Bft)
02/02/2007 09:00 10,4 C 70 % 1026,7 hPa 0,0 l/m 0,5 km/h (0 Bft) NO 0,98 h 0,051 mm 193 W/m 5,1 C 10,4 C 1,2 km/h (1 Bft)
02/02/2007 10:00 12,1 C 69 % 1027,1 hPa 0,0 l/m 0,5 km/h (0 Bft) S-SO 0,57 h 0,102 mm 222 W/m 6,5 C 12,1 C 1,4 km/h (1 Bft)
02/02/2007 11:00 13,7 C 74 % 1027,2 hPa 0,0 l/m 4,8 km/h (1 Bft) S 1,00 h 0,102 mm 433 W/m 9,2 C 13,7 C 7,7 km/h (2 Bft)
02/02/2007 12:00 14,6 C 71 % 1026,8 hPa 0,0 l/m 5,7 km/h (1 Bft) S-SE 1,00 h 0,229 mm 524 W/m 9,5 C 14,6 C 9,3 km/h (2 Bft)
02/02/2007 13:00 14,8 C 70 % 1026,3 hPa 0,0 l/m 6,5 km/h (2 Bft) SE 0,60 h 0,305 mm 405 W/m 9,5 C 14,8 C 10,5 km/h (2 Bft)
02/02/2007 14:00 14,5 C 71 % 1026,0 hPa 0,0 l/m 5,1 km/h (1 Bft) S 0,53 h 0,229 mm 325 W/m 9,2 C 14,5 C 8,8 km/h (2 Bft)
02/02/2007 15:00 13,4 C 69 % 1026,1 hPa 0,0 l/m 2,7 km/h (1 Bft) E 0,27 h 0,178 mm 144 W/m 7,8 C 13,4 C 5,2 km/h (1 Bft)
02/02/2007 16:00 12,9 C 73 % 1026,3 hPa 0,0 l/m 3,6 km/h (1 Bft) S 0,00 h 0,076 mm 63 W/m 8,2 C 12,9 C 5,6 km/h (1 Bft)
02/02/2007 17:00 12,0 C 78 % 1026,2 hPa 0,0 l/m 3,9 km/h (1 Bft) S 0,00 h 0,051 mm 11 W/m 8,2 C 12,0 C 5,7 km/h (1 Bft)
02/02/2007 18:00 11,5 C 83 % 1026,4 hPa 0,0 l/m 2,2 km/h (1 Bft) S-SO 0,00 h 0,025 mm 0 W/m 8,8 C 11,5 C 3,5 km/h (1 Bft)
02/02/2007 19:00 11,2 C 85 % 1026,6 hPa 0,0 l/m 0,0 km/h (0 Bft) N 0,00 h 0,025 mm 0 W/m 8,8 C 11,2 C 0,1 km/h (0 Bft)
02/02/2007 20:00 10,9 C 85 % 1026,4 hPa 0,0 l/m 0,0 km/h (0 Bft) S-SO 0,00 h 0,025 mm 0 W/m 8,5 C 10,9 C 0,2 km/h (0 Bft)
02/02/2007 21:00 10,3 C 86 % 1026,3 hPa 0,0 l/m 1,0 km/h (0 Bft) S-SO 0,00 h 0,025 mm 0 W/m 8,1 C 10,3 C 1,9 km/h (1 Bft)
02/02/2007 22:00 10,0 C 88 % 1026,2 hPa 0,0 l/m 0,2 km/h (0 Bft) SO 0,00 h 0,025 mm 0 W/m 8,0 C 10,0 C 0,9 km/h (0 Bft)
02/02/2007 23:00 9,9 C 87 % 1025,9 hPa 0,0 l/m 0,6 km/h (0 Bft) SO 0,00 h 0,025 mm 0 W/m 7,8 C 9,9 C 1,8 km/h (1 Bft)
03/02/2007 00:00 9,3 C 86 % 1025,7 hPa 0,0 l/m 1,5 km/h (1 Bft) SO 0,00 h 0,025 mm 0 W/m 7,0 C 9,3 C 3,1 km/h (1 Bft)
03/02/2007 01:00 8,8 C 86 % 1025,5 hPa 0,0 l/m 2,5 km/h (1 Bft) O-SO 0,00 h 0,025 mm 0 W/m 6,6 C 8,8 C 4,5 km/h (1 Bft)
03/02/2007 02:00 8,2 C 85 % 1025,2 hPa 0,0 l/m 2,7 km/h (1 Bft) O-NO 0,00 h 0,025 mm 0 W/m 5,9 C 8,2 C 4,2 km/h (1 Bft)
03/02/2007 03:00 7,7 C 86 % 1025,0 hPa 0,0 l/m 3,4 km/h (1 Bft) NO 0,00 h 0,025 mm 0 W/m 5,5 C 7,5 C 4,9 km/h (1 Bft)
03/02/2007 04:00 7,3 C 86 % 1024,9 hPa 0,0 l/m 3,5 km/h (1 Bft) NO 0,00 h 0,025 mm 0 W/m 5,1 C 7,1 C 5,4 km/h (1 Bft)
03/02/2007 05:00 6,8 C 87 % 1024,7 hPa 0,0 l/m 3,7 km/h (1 Bft) NO 0,00 h 0,025 mm 0 W/m 4,9 C 6,5 C 5,7 km/h (1 Bft)
03/02/2007 06:00 7,0 C 87 % 1024,3 hPa 0,0 l/m 4,8 km/h (1 Bft) O 0,00 h 0,025 mm 0 W/m 5,0 C 6,4 C 6,4 km/h (2 Bft)
03/02/2007 07:00 7,0 C 82 % 1024,3 hPa 0,0 l/m 5,9 km/h (2 Bft) O-NO 0,05 h 0,025 mm 8 W/m 4,1 C 6,1 C 7,7 km/h (2 Bft)
03/02/2007 08:00 7,5 C 77 % 1024,3 hPa 0,0 l/m 5,7 km/h (1 Bft) O-NO 0,48 h 0,025 mm 63 W/m 3,7 C 6,7 C 8,0 km/h (2 Bft)
03/02/2007 09:00 10,0 C 73 % 1024,0 hPa 0,0 l/m 1,0 km/h (0 Bft) O-NO 1,00 h 0,051 mm 204 W/m 5,3 C 10,0 C 2,1 km/h (1 Bft)
03/02/2007 10:00 12,1 C 75 % 1023,5 hPa 0,0 l/m 1,5 km/h (1 Bft) S 1,00 h 0,102 mm 337 W/m 7,8 C 12,1 C 3,5 km/h (1 Bft)
03/02/2007 11:00 13,2 C 73 % 1023,0 hPa 0,0 l/m 5,8 km/h (2 Bft) S 1,00 h 0,178 mm 421 W/m 8,4 C 13,2 C 8,6 km/h (2 Bft)
03/02/2007 12:00 14,4 C 69 % 1022,1 hPa 0,0 l/m 5,3 km/h (1 Bft) S 1,00 h 0,229 mm 481 W/m 8,8 C 14,4 C 8,3 km/h (2 Bft)
03/02/2007 13:00 14,9 C 69 % 1021,2 hPa 0,0 l/m 6,1 km/h (2 Bft) E-NE 1,00 h 0,279 mm 456 W/m 9,3 C 14,9 C 9,6 km/h (2 Bft)
03/02/2007 14:00 14,8 C 69 % 1020,6 hPa 0,0 l/m 3,9 km/h (1 Bft) E 1,00 h 0,254 mm 328 W/m 9,2 C 14,8 C 6,5 km/h (2 Bft)
03/02/2007 15:00 14,2 C 73 % 1020,0 hPa 0,0 l/m 3,3 km/h (1 Bft) S-SE 0,97 h 0,178 mm 236 W/m 9,4 C 14,2 C 5,6 km/h (1 Bft)
03/02/2007 16:00 13,5 C 77 % 1019,8 hPa 0,0 l/m 2,2 km/h (1 Bft) S-SE 0,92 h 0,127 mm 137 W/m 9,6 C 13,5 C 3,9 km/h (1 Bft)
03/02/2007 17:00 12,0 C 83 % 1019,9 hPa 0,0 l/m 1,5 km/h (1 Bft) E-NE 0,35 h 0,076 mm 31 W/m 9,2 C 12,0 C 2,6 km/h (1 Bft)
03/02/2007 18:00 10,2 C 90 % 1019,7 hPa 0,0 l/m 0,3 km/h (0 Bft) E-NE 0,00 h 0,025 mm 0 W/m 8,6 C 10,2 C 1,3 km/h (1 Bft)
03/02/2007 19:00 9,4 C 93 % 1020,0 hPa 0,0 l/m 1,0 km/h (0 Bft) N 0,00 h 0,000 mm 0 W/m 8,2 C 9,4 C 2,6 km/h (1 Bft)
03/02/2007 20:00 9,2 C 93 % 1020,0 hPa 0,0 l/m 1,6 km/h (1 Bft) N-NO 0,00 h 0,000 mm 0 W/m 8,0 C 9,2 C 3,6 km/h (1 Bft)
03/02/2007 21:00 8,9 C 92 % 1020,3 hPa 0,0 l/m 1,4 km/h (1 Bft) N-NO 0,00 h 0,000 mm 0 W/m 7,7 C 8,9 C 3,1 km/h (1 Bft)
03/02/2007 22:00 8,3 C 92 % 1020,5 hPa 0,0 l/m 1,9 km/h (1 Bft) N 0,00 h 0,000 mm 0 W/m 7,1 C 8,3 C 4,0 km/h (1 Bft)
03/02/2007 23:00 8,0 C 91 % 1020,5 hPa 0,0 l/m 1,0 km/h (0 Bft) E-NE 0,00 h 0,000 mm 0 W/m 6,6 C 8,0 C 2,3 km/h (1 Bft)
04/02/2007 00:00 7,5 C 90 % 1020,5 hPa 0,0 l/m 1,8 km/h (1 Bft) N 0,00 h 0,000 mm 0 W/m 5,9 C 7,4 C 3,4 km/h (1 Bft)
04/02/2007 01:00 6,9 C 88 % 1020,6 hPa 0,0 l/m 2,2 km/h (1 Bft) N 0,00 h 0,000 mm 0 W/m 5,0 C 6,7 C 3,9 km/h (1 Bft)
04/02/2007 02:00 7,7 C 90 % 1020,9 hPa 0,0 l/m 2,8 km/h (1 Bft) N 0,00 h 0,025 mm 0 W/m 6,1 C 7,5 C 4,9 km/h (1 Bft)
04/02/2007 03:00 8,2 C 89 % 1021,2 hPa 0,0 l/m 1,7 km/h (1 Bft) N 0,00 h 0,025 mm 0 W/m 6,5 C 8,1 C 3,7 km/h (1 Bft)
04/02/2007 04:00 8,3 C 89 % 1022,1 hPa 0,0 l/m 4,0 km/h (1 Bft) N 0,00 h 0,000 mm 0 W/m 6,7 C 8,1 C 6,8 km/h (2 Bft)
04/02/2007 05:00 9,1 C 90 % 1022,9 hPa 0,0 l/m 3,3 km/h (1 Bft) N 0,00 h 0,025 mm 0 W/m 7,5 C 8,9 C 6,0 km/h (2 Bft)
04/02/2007 06:00 9,6 C 90 % 1023,5 hPa 0,0 l/m 3,8 km/h (1 Bft) N 0,00 h 0,025 mm 0 W/m 8,0 C 9,4 C 6,8 km/h (2 Bft)
04/02/2007 07:00 9,9 C 87 % 1024,2 hPa 0,0 l/m 7,9 km/h (2 Bft) N-NE 0,05 h 0,025 mm 9 W/m 7,9 C 8,9 C 12,6 km/h (3 Bft)
04/02/2007 08:00 9,7 C 83 % 1025,0 hPa 0,0 l/m 6,0 km/h (2 Bft) N-NE 0,00 h 0,025 mm 26 W/m 7,0 C 9,4 C 9,6 km/h (2 Bft)
04/02/2007 09:00 11,1 C 75 % 1025,7 hPa 0,0 l/m 10,0 km/h (2 Bft) NE 0,67 h 0,025 mm 174 W/m 6,8 C 11,1 C 14,9 km/h (3 Bft)
04/02/2007 10:00 12,2 C 69 % 1026,4 hPa 0,0 l/m 12,8 km/h (3 Bft) E-NE 0,77 h 0,127 mm 277 W/m 6,7 C 12,2 C 17,8 km/h (3 Bft)
04/02/2007 11:00 12,8 C 63 % 1026,5 hPa 0,0 l/m 19,4 km/h (3 Bft) E-NE 1,00 h 0,178 mm 415 W/m 5,8 C 12,8 C 26,8 km/h (4 Bft)
04/02/2007 12:00 13,2 C 60 % 1026,3 hPa 0,0 l/m 17,7 km/h (3 Bft) E-NE 1,00 h 0,305 mm 464 W/m 5,5 C 13,2 C 24,4 km/h (4 Bft)
04/02/2007 13:00 13,3 C 58 % 1025,8 hPa 0,0 l/m 15,9 km/h (3 Bft) E-NE 1,00 h 0,330 mm 439 W/m 5,2 C 13,3 C 21,8 km/h (4 Bft)
04/02/2007 14:00 13,2 C 58 % 1025,3 hPa 0,0 l/m 11,9 km/h (2 Bft) E-NE 1,00 h 0,305 mm 370 W/m 5,0 C 13,2 C 16,7 km/h (3 Bft)
04/02/2007 15:00 12,6 C 60 % 1025,1 hPa 0,0 l/m 8,6 km/h (2 Bft) E-NE 1,00 h 0,254 mm 266 W/m 5,0 C 12,6 C 12,6 km/h (3 Bft)
04/02/2007 16:00 11,9 C 61 % 1024,9 hPa 0,0 l/m 5,7 km/h (1 Bft) E-NE 1,00 h 0,178 mm 133 W/m 4,7 C 11,9 C 7,8 km/h (2 Bft)
04/02/2007 17:00 10,4 C 67 % 1025,0 hPa 0,0 l/m 0,4 km/h (0 Bft) E 0,08 h 0,102 mm 27 W/m 4,4 C 10,4 C 1,1 km/h (1 Bft)
04/02/2007 18:00 8,8 C 73 % 1025,2 hPa 0,0 l/m 1,9 km/h (1 Bft) E-SE 0,00 h 0,025 mm 0 W/m 4,2 C 8,7 C 2,9 km/h (1 Bft)
04/02/2007 19:00 7,4 C 75 % 1025,2 hPa 0,0 l/m 2,1 km/h (1 Bft) O-NO 0,00 h 0,000 mm 0 W/m 3,3 C 7,4 C 4,5 km/h (1 Bft)
04/02/2007 20:00 7,1 C 71 % 1025,0 hPa 0,0 l/m 3,8 km/h (1 Bft) O-NO 0,00 h 0,025 mm 0 W/m 2,2 C 6,9 C 6,1 km/h (2 Bft)
04/02/2007 21:00 7,0 C 71 % 1024,9 hPa 0,0 l/m 4,8 km/h (1 Bft) O-NO 0,00 h 0,025 mm 0 W/m 2,0 C 6,4 C 7,3 km/h (2 Bft)
04/02/2007 22:00 6,8 C 73 % 1024,9 hPa 0,0 l/m 4,2 km/h (1 Bft) O-NO 0,00 h 0,025 mm 0 W/m 2,3 C 6,5 C 6,6 km/h (2 Bft)
04/02/2007 23:00 6,8 C 72 % 1024,9 hPa 0,0 l/m 5,6 km/h (1 Bft) O-NO 0,00 h 0,025 mm 0 W/m 2,0 C 5,9 C 7,1 km/h (2 Bft)
Min-Date _ 29/01/07 29/01/07 29/01/07 - 29/01/07 - - - - 29/01/07 29/01/07 29/01/07
_ Min-Heure 07:37 13:23 17:15 - 00:01 - - - - 08:02 08:04 00:01
Minimum _ 3,6 C 45 % 1017,2 hPa - 0,0 km/h (0 Bft) - - - - -0,2 C 1,1 C 0,0 km/h (0 Bft)
Max-Date _ 02/02/07 03/02/07 02/02/07 29/01/07 04/02/07 - 29/01/07 04/02/07 31/01/07 02/02/07 02/02/07 04/02/07
_ Max-Heure 13:33 19:24 11:15 00:00 10:57 - 08:03 13:00 11:41 13:32 13:33 11:39
Maximum _ 15,4 C 93 % 1027,3 hPa 0,0 l/m 25,7 km/h
E-NE (4 Bft)
- 0,02 h 0,330 mm 629 W/m 10,1 C 15,4 C 37,0 km/h
E-NE (5 Bft)
Moyenne _ 9,4 C 77 % 1021,7 hPa #0,0 l/m 3,9 km/h (1 Bft) NO #50:54 h #12,260 mm 227 W/m 5,4 C 9,2 C 6,2 km/h (2 Bft)
Roquefort les pins